createdAt,value
2023-06-13T00:01:38.146Z,4.00
2023-06-13T00:04:08.186Z,4.22
2023-06-13T00:06:39.032Z,4.32
2023-06-13T00:09:07.799Z,4.32
2023-06-13T00:11:35.672Z,4.07
2023-06-13T00:14:04.984Z,4.65
2023-06-13T00:16:33.789Z,4.55
2023-06-13T00:19:03.138Z,4.47
2023-06-13T00:21:31.149Z,4.63
2023-06-13T00:23:59.851Z,3.80
2023-06-13T00:26:27.777Z,5.13
2023-06-13T00:28:56.925Z,4.03
2023-06-13T00:31:30.528Z,4.55
2023-06-13T00:34:00.296Z,3.78
2023-06-13T00:36:30.496Z,4.00
2023-06-13T00:38:59.508Z,4.50
2023-06-13T00:41:27.918Z,4.47
2023-06-13T00:43:56.228Z,4.50
2023-06-13T00:46:34.427Z,4.22
2023-06-13T00:49:30.175Z,4.68
2023-06-13T00:52:08.106Z,4.53
2023-06-13T00:54:39.366Z,4.10
2023-06-13T00:57:09.653Z,4.53
2023-06-13T00:59:38.023Z,3.95
2023-06-13T01:02:06.250Z,4.10
2023-06-13T01:04:37.055Z,4.60
2023-06-13T01:07:12.472Z,4.05
2023-06-13T01:09:48.726Z,4.35
2023-06-13T01:12:30.549Z,4.20
2023-06-13T01:15:09.942Z,4.35
2023-06-13T01:17:43.538Z,3.97
2023-06-13T01:20:18.514Z,4.10
2023-06-13T01:23:07.922Z,4.63
2023-06-13T01:25:58.565Z,4.32
2023-06-13T01:28:28.252Z,4.57
2023-06-13T01:30:59.673Z,4.63
2023-06-13T01:33:29.394Z,4.75
2023-06-13T01:36:02.337Z,4.80
2023-06-13T01:38:32.179Z,4.50
2023-06-13T01:41:01.676Z,4.60
2023-06-13T01:43:32.566Z,4.10
2023-06-13T01:46:30.050Z,4.30
2023-06-13T01:49:01.229Z,4.50
2023-06-13T01:51:40.239Z,4.57
2023-06-13T01:54:12.542Z,4.50
2023-06-13T01:56:43.724Z,4.03
2023-06-13T01:59:13.521Z,3.90
2023-06-13T02:01:44.313Z,4.45
2023-06-13T02:04:12.874Z,4.22
2023-06-13T02:06:41.119Z,4.65
2023-06-13T02:09:09.050Z,3.97
2023-06-13T02:11:37.383Z,4.13
2023-06-13T02:14:05.392Z,4.70
2023-06-13T02:16:34.338Z,4.40
2023-06-13T02:19:03.084Z,4.20
2023-06-13T02:21:51.211Z,4.80
2023-06-13T02:24:20.108Z,4.88
2023-06-13T02:26:49.645Z,4.30
2023-06-13T02:29:19.834Z,3.95
2023-06-13T02:31:48.481Z,5.20
2023-06-13T02:34:16.858Z,4.55
2023-06-13T02:36:45.224Z,4.38
2023-06-13T02:39:13.530Z,4.10
2023-06-13T02:41:46.934Z,4.15
2023-06-13T02:44:14.963Z,4.63
2023-06-13T02:46:43.482Z,4.28
2023-06-13T02:49:11.430Z,4.35
2023-06-13T02:51:39.830Z,4.40
2023-06-13T02:54:08.816Z,4.45
2023-06-13T02:56:37.990Z,4.05
2023-06-13T02:59:06.557Z,4.10
2023-06-13T03:01:35.368Z,4.47
2023-06-13T03:04:09.629Z,4.53
2023-06-13T03:06:42.566Z,4.63
2023-06-13T03:09:13.337Z,4.25
2023-06-13T03:11:41.695Z,4.22
2023-06-13T03:14:10.024Z,4.38
2023-06-13T03:16:38.589Z,3.92
2023-06-13T03:19:07.034Z,4.82
2023-06-13T03:21:37.179Z,4.20
2023-06-13T03:24:06.301Z,4.53
2023-06-13T03:26:39.456Z,4.40
2023-06-13T03:29:11.384Z,4.40
2023-06-13T03:31:40.162Z,3.97
2023-06-13T03:34:08.722Z,4.50
2023-06-13T03:36:40.325Z,4.10
2023-06-13T03:39:08.954Z,4.65
2023-06-13T03:41:37.664Z,4.15
2023-06-13T03:44:05.850Z,4.50
2023-06-13T03:46:34.530Z,5.20
2023-06-13T03:49:02.599Z,4.47
2023-06-13T03:51:31.487Z,4.57
2023-06-13T03:53:59.769Z,4.40
2023-06-13T03:56:28.364Z,4.65
2023-06-13T03:58:57.023Z,4.43
2023-06-13T04:01:25.902Z,4.13
2023-06-13T04:03:53.937Z,4.70
2023-06-13T04:06:23.440Z,4.35
2023-06-13T04:08:51.754Z,4.70
2023-06-13T04:11:20.226Z,4.43
2023-06-13T04:13:48.203Z,4.43
2023-06-13T04:16:16.502Z,5.05
2023-06-13T04:18:45.832Z,11.38
2023-06-13T04:21:14.286Z,6.15
2023-06-13T04:23:42.629Z,4.25
2023-06-13T04:26:13.351Z,4.78
2023-06-13T04:28:42.053Z,4.65
2023-06-13T04:31:12.018Z,4.60
2023-06-13T04:33:41.225Z,4.93
2023-06-13T04:36:10.192Z,4.95
2023-06-13T04:38:40.860Z,6.65
2023-06-13T04:41:14.684Z,5.40
2023-06-13T04:43:42.783Z,5.10
2023-06-13T04:46:12.552Z,4.22
2023-06-13T04:48:40.558Z,4.50
2023-06-13T04:51:12.719Z,4.90
2023-06-13T04:53:42.595Z,4.93
2023-06-13T04:56:11.122Z,4.85
2023-06-13T04:58:39.259Z,4.97
2023-06-13T05:01:09.364Z,5.00
2023-06-13T05:03:39.213Z,4.63
2023-06-13T05:06:07.721Z,5.25
2023-06-13T05:08:36.070Z,5.80
2023-06-13T05:11:04.337Z,5.72
2023-06-13T05:13:32.318Z,7.03
2023-06-13T05:16:00.707Z,4.63
2023-06-13T05:18:31.314Z,5.28
2023-06-13T05:21:00.773Z,4.78
2023-06-13T05:23:29.862Z,4.95
2023-06-13T05:25:58.200Z,4.63
2023-06-13T05:28:26.146Z,5.18
2023-06-13T05:30:54.592Z,4.80
2023-06-13T05:33:23.000Z,5.00
2023-06-13T05:35:57.138Z,4.68
2023-06-13T05:38:26.679Z,4.17
2023-06-13T05:40:55.128Z,4.10
2023-06-13T05:43:23.346Z,4.60
2023-06-13T05:45:51.993Z,4.53
2023-06-13T05:48:20.006Z,4.30
2023-06-13T05:50:48.600Z,4.55
2023-06-13T05:53:16.616Z,4.53
2023-06-13T05:55:45.797Z,4.88
2023-06-13T05:58:13.982Z,5.10
2023-06-13T06:00:42.450Z,5.05
2023-06-13T06:03:10.797Z,4.70
2023-06-13T06:05:39.414Z,4.55
2023-06-13T06:08:07.445Z,5.25
2023-06-13T06:10:36.971Z,4.70
2023-06-13T06:13:07.176Z,4.50
2023-06-13T06:15:55.707Z,4.30
2023-06-13T06:18:24.491Z,4.80
2023-06-13T06:20:53.085Z,5.10
2023-06-13T06:23:21.156Z,5.18
2023-06-13T06:25:49.434Z,5.15
2023-06-13T06:28:17.493Z,5.40
2023-06-13T06:30:45.918Z,5.00
2023-06-13T06:33:13.946Z,4.93
2023-06-13T06:35:42.414Z,5.10
2023-06-13T06:38:11.133Z,5.82
2023-06-13T06:40:39.579Z,5.18
2023-06-13T06:43:07.693Z,5.15
2023-06-13T06:45:38.069Z,5.00
2023-06-13T06:48:06.461Z,4.93
2023-06-13T06:50:34.803Z,5.50
2023-06-13T06:53:02.919Z,5.55
2023-06-13T06:55:32.055Z,5.00
2023-06-13T06:58:00.097Z,5.43
2023-06-13T07:00:31.238Z,5.20
2023-06-13T07:02:59.779Z,5.85
2023-06-13T07:05:30.088Z,5.78
2023-06-13T07:07:58.205Z,5.93
2023-06-13T07:10:27.818Z,5.45
2023-06-13T07:12:55.886Z,5.03
2023-06-13T07:15:24.628Z,5.97
2023-06-13T07:17:53.446Z,4.82
2023-06-13T07:20:22.115Z,5.00
2023-06-13T07:22:50.208Z,5.20
2023-06-13T07:25:18.560Z,5.63
2023-06-13T07:27:47.490Z,5.60
2023-06-13T07:30:16.254Z,4.93
2023-06-13T07:32:44.443Z,5.63
2023-06-13T07:35:18.386Z,5.10
2023-06-13T07:37:46.423Z,5.78
2023-06-13T07:40:15.264Z,4.55
2023-06-13T07:42:43.509Z,4.78
2023-06-13T07:45:12.005Z,4.90
2023-06-13T07:47:40.099Z,4.72
2023-06-13T07:50:09.304Z,4.68
2023-06-13T07:52:37.531Z,5.20
2023-06-13T07:55:06.317Z,5.03
2023-06-13T07:57:53.703Z,5.63
2023-06-13T08:00:24.891Z,5.60
2023-06-13T08:02:52.949Z,5.28
2023-06-13T08:05:21.776Z,5.65
2023-06-13T08:07:49.860Z,5.50
2023-06-13T08:10:18.434Z,4.85
2023-06-13T08:12:49.042Z,5.15
2023-06-13T08:15:17.474Z,5.28
2023-06-13T08:17:45.479Z,4.72
2023-06-13T08:20:13.942Z,4.68
2023-06-13T08:22:42.656Z,5.15
2023-06-13T08:25:11.409Z,4.60
2023-06-13T08:27:44.903Z,4.38
2023-06-13T08:30:15.684Z,4.17
2023-06-13T08:32:44.391Z,4.10
2023-06-13T08:35:15.358Z,4.25
2023-06-13T08:37:43.647Z,4.60
2023-06-13T08:40:13.634Z,4.30
2023-06-13T08:42:41.934Z,4.15
2023-06-13T08:45:10.822Z,4.43
2023-06-13T08:47:39.909Z,4.20
2023-06-13T08:50:08.968Z,4.50
2023-06-13T08:52:42.182Z,4.38
2023-06-13T08:55:53.828Z,4.38
2023-06-13T08:58:09.001Z,4.33
2023-06-13T09:00:38.123Z,3.75
2023-06-13T09:03:10.921Z,3.78
2023-06-13T09:05:40.357Z,4.10
2023-06-13T09:08:28.657Z,4.15
2023-06-13T09:10:59.757Z,4.10
2023-06-13T09:13:30.572Z,4.90
2023-06-13T09:15:59.426Z,4.15
2023-06-13T09:18:29.019Z,4.18
2023-06-13T09:20:58.644Z,4.15
2023-06-13T09:23:27.826Z,3.88
2023-06-13T09:25:58.296Z,3.70
2023-06-13T09:28:34.301Z,4.05
2023-06-13T09:31:02.694Z,4.00
2023-06-13T09:33:30.862Z,4.13
2023-06-13T09:38:49.601Z,4.72
2023-06-13T09:41:21.271Z,4.88
2023-06-13T09:43:53.979Z,4.30
2023-06-13T09:46:26.084Z,4.15
2023-06-13T09:48:54.389Z,4.30
2023-06-13T09:51:23.633Z,4.13
2023-06-13T09:53:51.871Z,3.90
2023-06-13T09:56:21.938Z,4.25
2023-06-13T09:58:52.892Z,3.67
2023-06-13T10:01:21.651Z,3.65
2023-06-13T10:03:50.015Z,4.05
2023-06-13T10:06:18.426Z,3.95
2023-06-13T10:08:49.974Z,4.20
2023-06-13T10:11:24.746Z,3.47
2023-06-13T10:14:03.502Z,4.03
2023-06-13T10:16:37.184Z,3.97
2023-06-13T10:19:07.295Z,3.65
2023-06-13T10:21:48.100Z,3.83
2023-06-13T10:24:22.195Z,3.70
2023-06-13T10:26:56.914Z,4.00
2023-06-13T10:29:49.613Z,3.95
2023-06-13T10:32:18.031Z,4.43
2023-06-13T10:35:10.044Z,3.72
2023-06-13T10:37:58.728Z,4.38
2023-06-13T10:40:38.683Z,3.80
2023-06-13T10:43:21.342Z,4.70
2023-06-13T10:45:51.332Z,4.25
2023-06-13T10:48:53.951Z,4.65
2023-06-13T10:51:24.230Z,4.00
2023-06-13T10:54:07.610Z,3.50
2023-06-13T10:56:40.760Z,4.53
2023-06-13T10:59:18.907Z,4.22
2023-06-13T11:01:47.226Z,4.43
2023-06-13T11:04:23.506Z,3.97
2023-06-13T11:06:55.907Z,3.60
2023-06-13T11:09:26.670Z,3.30
2023-06-13T11:11:57.537Z,4.22
2023-06-13T11:14:29.034Z,4.05
2023-06-13T11:16:57.036Z,4.47
2023-06-13T11:19:28.368Z,3.80
2023-06-13T11:22:06.791Z,3.85
2023-06-13T11:24:36.916Z,4.22
2023-06-13T11:27:06.127Z,3.75
2023-06-13T11:29:35.063Z,4.35
2023-06-13T11:32:06.099Z,4.50
2023-06-13T11:34:44.252Z,4.72
2023-06-13T11:37:26.650Z,4.40
2023-06-13T11:42:31.770Z,4.50
2023-06-13T11:45:02.707Z,4.20
2023-06-13T11:47:32.830Z,3.72
2023-06-13T11:50:01.417Z,4.22
2023-06-13T11:52:32.835Z,3.50
2023-06-13T11:55:01.200Z,3.83
2023-06-13T11:57:50.810Z,4.32
2023-06-13T12:00:23.291Z,3.60
2023-06-13T12:02:52.411Z,3.60
2023-06-13T12:05:21.610Z,3.70
2023-06-13T12:07:50.687Z,5.05
2023-06-13T12:10:19.779Z,3.90
2023-06-13T12:12:58.408Z,3.88
2023-06-13T12:15:27.996Z,3.80
2023-06-13T12:18:03.994Z,3.67
2023-06-13T12:20:47.201Z,3.88
2023-06-13T12:23:16.741Z,3.53
2023-06-13T12:25:46.805Z,3.58
2023-06-13T12:28:17.235Z,3.45
2023-06-13T12:30:51.264Z,3.03
2023-06-13T12:33:26.697Z,3.10
2023-06-13T12:35:59.026Z,3.67
2023-06-13T12:38:28.590Z,4.05
2023-06-13T12:40:59.835Z,4.60
2023-06-13T12:43:30.672Z,4.45
2023-06-13T12:46:00.989Z,3.85
2023-06-13T12:48:29.104Z,3.97
2023-06-13T12:51:01.774Z,4.47
2023-06-13T12:53:32.420Z,3.90
2023-06-13T12:56:03.679Z,4.38
2023-06-13T12:58:33.240Z,3.90
2023-06-13T13:01:07.673Z,4.72
2023-06-13T13:03:37.414Z,4.15
2023-06-13T13:06:05.762Z,4.47
2023-06-13T13:08:35.988Z,4.53
2023-06-13T13:11:04.901Z,4.68
2023-06-13T13:13:32.776Z,4.40
2023-06-13T13:16:01.265Z,4.00
2023-06-13T13:18:29.517Z,4.80
2023-06-13T13:20:57.773Z,4.30
2023-06-13T13:23:25.941Z,4.72
2023-06-13T13:25:54.229Z,3.92
2023-06-13T13:28:22.084Z,3.50
2023-06-13T13:31:00.868Z,3.80
2023-06-13T13:33:30.534Z,3.85
2023-06-13T13:35:59.014Z,3.88
2023-06-13T13:38:27.180Z,3.90
2023-06-13T13:40:55.536Z,4.28
2023-06-13T13:43:24.629Z,3.70
2023-06-13T13:45:52.763Z,3.72
2023-06-13T13:48:21.134Z,4.00
2023-06-13T13:50:50.321Z,3.78
2023-06-13T13:53:18.994Z,2.63
2023-06-13T13:55:47.567Z,2.33
2023-06-13T13:58:18.270Z,1.98
2023-06-13T14:04:00.450Z,1.65
2023-06-13T14:06:31.633Z,1.13
2023-06-13T14:09:02.730Z,1.50
2023-06-13T14:11:34.707Z,1.38
2023-06-13T14:14:02.831Z,1.10
2023-06-13T14:16:31.270Z,1.10
2023-06-13T14:19:00.187Z,1.25
2023-06-13T14:21:29.745Z,1.10
2023-06-13T14:24:00.100Z,0.90
2023-06-13T14:26:29.015Z,1.10
2023-06-13T14:28:57.143Z,1.30
2023-06-13T14:31:25.833Z,1.05
2023-06-13T14:33:54.038Z,1.25
2023-06-13T14:36:23.069Z,1.23
2023-06-13T14:38:52.440Z,1.30
2023-06-13T14:41:21.186Z,1.50
2023-06-13T14:43:49.625Z,1.33
2023-06-13T14:46:17.928Z,2.00
2023-06-13T14:48:46.102Z,1.42
2023-06-13T14:51:14.994Z,1.40
2023-06-13T14:53:43.104Z,1.60
2023-06-13T14:56:11.929Z,1.38
2023-06-13T14:58:39.864Z,1.38
2023-06-13T15:01:08.764Z,1.60
2023-06-13T15:03:40.603Z,1.80
2023-06-13T15:06:08.994Z,1.38
2023-06-13T15:08:38.425Z,1.40
2023-06-13T15:11:09.668Z,1.70
2023-06-13T15:13:38.363Z,1.85
2023-06-13T15:16:08.750Z,1.70
2023-06-13T15:18:38.057Z,1.52
2023-06-13T15:21:06.822Z,1.92
2023-06-13T15:23:35.260Z,1.90
2023-06-13T15:26:05.074Z,2.13
2023-06-13T15:28:33.117Z,1.70
2023-06-13T15:31:01.378Z,1.75
2023-06-13T15:33:33.217Z,1.67
2023-06-13T15:36:04.449Z,1.95
2023-06-13T15:38:32.654Z,1.98
2023-06-13T15:41:01.049Z,2.20
2023-06-13T15:43:29.008Z,1.88
2023-06-13T15:45:57.937Z,1.88
2023-06-13T15:48:25.912Z,2.38
2023-06-13T15:50:54.152Z,2.50
2023-06-13T15:53:22.255Z,2.13
2023-06-13T15:55:50.910Z,2.25
2023-06-13T15:58:18.999Z,2.50
2023-06-13T16:00:47.527Z,2.15
2023-06-13T16:03:15.789Z,2.10
2023-06-13T16:05:45.432Z,2.25
2023-06-13T16:08:13.750Z,2.30
2023-06-13T16:10:43.002Z,2.00
2023-06-13T16:13:10.902Z,2.10
2023-06-13T16:15:39.479Z,2.20
2023-06-13T16:18:07.655Z,2.20
2023-06-13T16:20:36.052Z,2.67
2023-06-13T16:23:04.123Z,2.50
2023-06-13T16:25:33.065Z,2.63
2023-06-13T16:28:01.885Z,2.78
2023-06-13T16:30:30.548Z,2.28
2023-06-13T16:32:59.364Z,2.13
2023-06-13T16:35:28.455Z,2.55
2023-06-13T16:37:59.102Z,2.53
2023-06-13T16:40:28.114Z,1.80
2023-06-13T16:42:58.202Z,1.90
2023-06-13T16:45:26.912Z,2.33
2023-06-13T16:47:54.989Z,3.00
2023-06-13T16:50:25.332Z,2.47
2023-06-13T16:52:55.430Z,2.50
2023-06-13T16:55:24.689Z,2.47
2023-06-13T16:57:55.080Z,2.85
2023-06-13T17:00:23.398Z,2.90
2023-06-13T17:02:52.595Z,2.60
2023-06-13T17:05:20.943Z,2.70
2023-06-13T17:07:49.367Z,2.80
2023-06-13T17:10:21.254Z,2.80
2023-06-13T17:12:49.908Z,2.83
2023-06-13T17:15:18.491Z,2.30
2023-06-13T17:17:47.327Z,2.33
2023-06-13T17:20:15.333Z,2.70
2023-06-13T17:22:45.009Z,2.60
2023-06-13T17:25:13.286Z,2.28
2023-06-13T17:27:42.335Z,2.33
2023-06-13T17:30:11.010Z,2.08
2023-06-13T17:32:39.722Z,2.60
2023-06-13T17:35:08.299Z,2.33
2023-06-13T17:37:37.023Z,2.33
2023-06-13T17:40:07.664Z,3.15
2023-06-13T17:42:36.424Z,2.85
2023-06-13T17:45:04.930Z,2.88
2023-06-13T17:47:33.751Z,2.92
2023-06-13T17:50:01.958Z,2.50
2023-06-13T17:52:33.077Z,2.58
2023-06-13T17:55:02.018Z,3.00
2023-06-13T17:57:34.910Z,2.65
2023-06-13T18:00:04.416Z,2.75
2023-06-13T18:02:42.916Z,2.45
2023-06-13T18:05:11.591Z,2.50
2023-06-13T18:07:41.538Z,3.83
2023-06-13T18:10:09.795Z,2.47
2023-06-13T18:12:38.596Z,3.17
2023-06-13T18:15:07.439Z,3.17
2023-06-13T18:17:36.476Z,3.50
2023-06-13T18:20:06.114Z,3.58
2023-06-13T18:22:36.172Z,3.33
2023-06-13T18:25:04.917Z,3.50
2023-06-13T18:27:33.886Z,3.60
2023-06-13T18:30:02.177Z,3.28
2023-06-13T18:32:35.076Z,12.30
2023-06-13T18:35:03.842Z,2.95
2023-06-13T18:37:32.826Z,3.20
2023-06-13T18:40:01.723Z,2.60
2023-06-13T18:42:33.220Z,2.72
2023-06-13T18:45:01.578Z,2.92
2023-06-13T18:47:31.252Z,3.15
2023-06-13T18:49:59.591Z,3.15
2023-06-13T18:52:28.945Z,3.10
2023-06-13T18:54:57.618Z,2.88
2023-06-13T18:57:26.776Z,2.67
2023-06-13T18:59:55.065Z,2.63
2023-06-13T19:02:24.154Z,3.10
2023-06-13T19:04:55.149Z,2.55
2023-06-13T19:07:24.357Z,2.90
2023-06-13T19:09:52.887Z,2.80
2023-06-13T19:12:23.455Z,2.78
2023-06-13T19:14:54.096Z,2.70
2023-06-13T19:17:23.550Z,2.90
2023-06-13T19:19:52.110Z,2.90
2023-06-13T19:22:21.093Z,2.90
2023-06-13T19:24:49.646Z,2.95
2023-06-13T19:27:18.829Z,2.70
2023-06-13T19:29:47.313Z,3.00
2023-06-13T19:32:16.310Z,2.58
2023-06-13T19:34:44.992Z,2.47
2023-06-13T19:37:14.311Z,2.50
2023-06-13T19:45:53.579Z,2.95
2023-06-13T19:49:53.981Z,2.65
2023-06-13T19:57:11.145Z,2.30
2023-06-13T20:04:30.454Z,2.40
2023-06-13T20:07:50.342Z,2.28
2023-06-13T20:11:56.081Z,2.55
2023-06-13T20:26:29.168Z,2.33
2023-06-13T20:33:55.793Z,2.67
2023-06-13T20:37:14.372Z,3.00
2023-06-13T21:05:44.399Z,2.78
2023-06-13T21:08:38.211Z,2.72
2023-06-13T21:11:57.392Z,3.00
2023-06-13T21:14:51.484Z,3.05
2023-06-13T21:18:09.317Z,2.92
2023-06-13T21:26:36.346Z,2.53
2023-06-13T21:29:30.389Z,2.72
2023-06-13T21:32:48.522Z,2.83
2023-06-13T21:36:01.461Z,2.75
2023-06-13T21:38:55.658Z,2.85
2023-06-13T21:42:13.377Z,2.70
2023-06-13T21:45:07.703Z,2.60
2023-06-13T21:48:26.766Z,2.70
2023-06-13T22:26:59.097Z,2.65
2023-06-13T22:30:17.895Z,2.80
2023-06-13T22:32:47.112Z,3.03
2023-06-13T22:35:15.034Z,2.83
2023-06-13T22:37:43.418Z,3.00
2023-06-13T22:40:11.782Z,2.97
2023-06-13T22:42:42.082Z,2.92
2023-06-13T22:45:10.620Z,2.45
2023-06-13T22:47:39.226Z,2.45
2023-06-13T22:50:08.301Z,2.75
2023-06-13T22:52:41.021Z,2.58
2023-06-13T22:55:09.421Z,2.90
2023-06-13T22:57:38.802Z,3.05
2023-06-13T23:00:12.424Z,2.58
2023-06-13T23:02:42.837Z,2.53
2023-06-13T23:05:11.231Z,2.63
2023-06-13T23:07:39.792Z,2.33
2023-06-13T23:10:08.143Z,3.05
2023-06-13T23:12:37.362Z,2.78
2023-06-13T23:15:06.135Z,2.65
2023-06-13T23:17:37.078Z,2.72
2023-06-13T23:20:06.730Z,3.60
2023-06-13T23:22:35.320Z,2.65
2023-06-13T23:25:04.215Z,2.60
2023-06-13T23:27:33.384Z,2.67
2023-06-13T23:30:06.267Z,2.40
2023-06-13T23:35:09.444Z,2.53
2023-06-13T23:37:43.829Z,2.35
2023-06-13T23:40:15.256Z,2.45
2023-06-13T23:42:54.699Z,2.85
2023-06-13T23:45:23.206Z,2.38
2023-06-13T23:48:14.387Z,2.55
2023-06-13T23:50:46.360Z,2.30
2023-06-13T23:53:27.443Z,2.97
2023-06-13T23:55:56.318Z,2.50
2023-06-13T23:58:39.649Z,2.40
